Elderon, Wisconsin
Current Conditions -  °F | °C
As of 4:35 AM on Saturday 25 Oct 2014 (Local Time) from KCWA Reporting Station
Haze Haze  
Wind Chill: 50°   Ceiling: Unl
Heat Index: 50°   Visibility: 5mi
Dew Point: 50°   Wind: 8mph
Humidity: 100%   Direction: 260°W
Pressure: 29.86"   Gusts: NA
Location:  44.78°N, 89.24°W
Report Text: KCWA 250935Z AUTO 26007KT 5SM BR CLR 10/10 A2986 RMK AO2
Loading
Personal Weather Stations






























Interactive Weather Map
Tropical Storm Tracking
New forecast layout! Learn more

10-Day Weather Forecast

Advertisements
Track Severe Weather on mobile